BWU weather

Sydney Bankstown Airport
Sydney, New South Wales, Australia

Public forecast

Using degrees Celsius for public forecast. Weather courtesy of forecast.io.

METAR (pilot weather report)

Closest report is Sydney Kingsford Smith International Airport, 9.5 nm (17.6 km) E. Retrieved 2018/08/15 05:30 UTC (22 minutes ago):

YSSY 150530Z 30026KT CAVOK 26/M06 Q1008 FM0800 31015KT CAVOK FM0530 MOD/SEV TURB BLW 5000FT

TAF (pilot weather forecast)

Forecast is more than 6 hours old.

Closest forecast is Sydney Kingsford Smith International Airport, 9.5 nm (17.6 km) E. Retrieved 2018/08/14 18:00 UTC (12 hours ago):

TAF YSSY 141634Z 1418/1524 32008KT CAVOK FM142300 31020G30KT CAVOK FM150300 29020G30KT CAVOK FM150700 29018KT CAVOK FM150900 32010KT CAVOK FM151800 24010KT CAVOK